createdAt,value
2022-12-16T00:08:23.124Z,24.67
2022-12-16T00:18:26.329Z,25.80
2022-12-16T00:28:30.890Z,24.40
2022-12-16T00:38:33.896Z,21.77
2022-12-16T00:48:38.215Z,23.17
2022-12-16T00:58:42.725Z,21.03
2022-12-16T01:08:48.878Z,25.33
2022-12-16T01:18:52.279Z,20.63
2022-12-16T01:28:56.498Z,21.13
2022-12-16T01:38:59.782Z,21.40
2022-12-16T01:49:12.336Z,18.97
2022-12-16T01:59:18.389Z,19.57
2022-12-16T02:09:22.983Z,20.10
2022-12-16T02:20:11.005Z,19.60
2022-12-16T02:30:39.699Z,18.40
2022-12-16T02:40:45.854Z,18.13
2022-12-16T02:50:52.172Z,17.43
2022-12-16T03:01:03.149Z,18.10
2022-12-16T03:11:09.324Z,18.93
2022-12-16T03:21:15.194Z,17.57
2022-12-16T03:31:32.851Z,15.80
2022-12-16T03:41:37.740Z,16.13
2022-12-16T03:51:41.995Z,15.33
2022-12-16T04:01:45.230Z,14.90
2022-12-16T04:12:07.022Z,13.70
2022-12-16T04:22:32.063Z,13.63
2022-12-16T04:32:50.570Z,13.97
2022-12-16T04:43:11.064Z,13.93
2022-12-16T04:53:33.361Z,13.87
2022-12-16T05:03:54.577Z,15.67
2022-12-16T05:14:18.660Z,13.73
2022-12-16T05:24:39.589Z,13.57
2022-12-16T05:35:16.608Z,13.10
2022-12-16T05:45:37.066Z,14.40
2022-12-16T05:55:56.272Z,13.70
2022-12-16T06:06:17.065Z,11.93
2022-12-16T06:16:38.940Z,12.73
2022-12-16T06:26:59.713Z,11.77
2022-12-16T06:37:21.730Z,15.07
2022-12-16T06:47:42.361Z,13.80
2022-12-16T06:58:09.595Z,13.90
2022-12-16T07:08:30.681Z,13.77
2022-12-16T07:18:52.288Z,13.77
2022-12-16T07:29:12.765Z,12.50
2022-12-16T07:53:26.837Z,11.83
2022-12-16T08:00:37.393Z,12.50
2022-12-16T08:10:57.771Z,13.07
2022-12-16T08:21:19.529Z,13.77
2022-12-16T08:31:40.313Z,13.80
2022-12-16T08:42:02.074Z,14.20
2022-12-16T08:52:23.283Z,15.10
2022-12-16T09:02:45.313Z,14.43
2022-12-16T09:13:07.649Z,14.57
2022-12-16T09:23:34.335Z,13.53
2022-12-16T09:33:55.488Z,13.93
2022-12-16T09:44:27.199Z,14.63
2022-12-16T09:54:50.541Z,14.20
2022-12-16T10:05:13.476Z,13.13
2022-12-16T10:15:45.894Z,13.17
2022-12-16T10:26:12.695Z,14.57
2022-12-16T10:36:39.568Z,12.97
2022-12-16T10:47:01.440Z,14.70
2022-12-16T10:57:29.637Z,15.10
2022-12-16T11:07:55.420Z,14.27
2022-12-16T11:18:21.114Z,14.23
2022-12-16T11:28:43.046Z,13.23
2022-12-16T11:39:06.058Z,15.20
2022-12-16T11:49:36.267Z,15.10
2022-12-16T12:00:00.820Z,15.87
2022-12-16T12:10:36.710Z,15.63
2022-12-16T12:21:06.106Z,16.73
2022-12-16T12:31:40.754Z,17.93
2022-12-16T12:42:22.906Z,19.53
2022-12-16T12:53:11.095Z,20.73
2022-12-16T13:03:36.376Z,20.17
2022-12-16T13:13:58.775Z,21.57
2022-12-16T13:24:43.149Z,21.80
2022-12-16T13:35:05.405Z,21.47
2022-12-16T13:45:36.568Z,20.73
2022-12-16T13:56:03.422Z,22.17
2022-12-16T14:06:30.071Z,21.43
2022-12-16T14:17:01.680Z,22.23
2022-12-16T14:27:30.171Z,22.43
2022-12-16T14:37:55.589Z,23.47
2022-12-16T14:48:24.660Z,22.23
2022-12-16T14:58:46.647Z,21.27
2022-12-16T15:09:23.967Z,25.70
2022-12-16T15:19:46.199Z,25.10
2022-12-16T15:30:09.011Z,25.47
2022-12-16T15:40:44.826Z,21.67
2022-12-16T15:51:11.790Z,19.80
2022-12-16T16:01:36.640Z,19.13
2022-12-16T16:12:12.021Z,20.13
2022-12-16T16:22:36.065Z,18.97
2022-12-16T16:33:11.285Z,21.43
2022-12-16T16:43:34.941Z,18.03
2022-12-16T16:53:56.231Z,20.37
2022-12-16T17:04:18.191Z,19.50
2022-12-16T17:14:40.258Z,20.83
2022-12-16T17:25:02.429Z,23.63
2022-12-16T17:35:31.831Z,20.97
2022-12-16T17:45:54.558Z,20.57
2022-12-16T17:56:14.924Z,21.93
2022-12-16T18:06:36.697Z,22.40
2022-12-16T18:16:57.181Z,25.73
2022-12-16T18:37:39.920Z,26.53
2022-12-16T18:48:10.205Z,40.37
2022-12-16T19:09:13.337Z,24.13
2022-12-16T19:19:34.068Z,24.13
2022-12-16T19:29:56.083Z,22.03
2022-12-16T19:40:27.952Z,24.40
2022-12-16T19:50:50.495Z,22.60
2022-12-16T20:01:12.456Z,24.37
2022-12-16T20:11:34.160Z,29.23
2022-12-16T20:21:56.277Z,20.40
2022-12-16T20:32:18.669Z,24.23
2022-12-16T20:42:39.297Z,22.57
2022-12-16T20:53:12.559Z,23.70
2022-12-16T21:03:33.195Z,23.43
2022-12-16T21:13:56.368Z,23.70
2022-12-16T21:24:17.235Z,25.17
2022-12-16T21:34:39.267Z,22.23
2022-12-16T21:44:59.848Z,23.13
2022-12-16T21:55:21.806Z,22.83
2022-12-16T22:05:42.723Z,22.90
2022-12-16T22:16:13.639Z,23.57
2022-12-16T22:26:34.230Z,22.63
2022-12-16T22:36:57.072Z,23.63
2022-12-16T22:47:17.982Z,23.80
2022-12-16T22:57:39.618Z,23.80
2022-12-16T23:08:00.430Z,24.47
2022-12-16T23:18:22.935Z,22.90
2022-12-16T23:28:44.467Z,24.23
2022-12-16T23:39:06.801Z,26.17
2022-12-16T23:49:29.608Z,24.07
2022-12-16T23:59:51.372Z,25.50
